Time,TemperatureF,DewpointF,PressureIn,WindDirection,WindDirectionDegrees,WindSpeedMPH,WindSpeedGustMPH,Humidity,HourlyPrecipIn,Conditions,Clouds,dailyrainin,SoftwareType,DateUTC
2013-03-10 00:14:00,30.3,4.0,30.31,WNW,295,0.0,-999.0,32,-99.99,,,0.02,weatherlink.com 1.10,2013-03-10 05:14:00,
2013-03-10 00:29:00,30.0,3.0,30.31,WNW,295,0.0,-999.0,32,-99.99,,,0.00,weatherlink.com 1.10,2013-03-10 05:29:00,
2013-03-10 00:44:00,30.2,4.0,30.32,NNE,23,0.0,-999.0,32,-99.99,,,0.00,weatherlink.com 1.10,2013-03-10 05:44:00,
2013-03-10 00:59:00,30.6,3.0,30.32,NNE,19,0.0,-999.0,31,-99.99,,,0.00,weatherlink.com 1.10,2013-03-10 05:59:00,
2013-03-10 01:14:00,30.7,3.0,30.32,NNE,19,0.0,-999.0,31,-99.99,,,0.00,weatherlink.com 1.10,2013-03-10 06:14:00,
2013-03-10 01:29:00,30.6,3.0,30.32,NNE,19,0.0,-999.0,31,-99.99,,,0.00,weatherlink.com 1.10,2013-03-10 06:29:00,
2013-03-10 01:44:00,30.3,3.0,30.32,NNE,19,0.0,-999.0,31,-99.99,,,0.00,weatherlink.com 1.10,2013-03-10 06:44:00,
2013-03-10 01:59:00,30.8,3.0,30.33,NNW,341,0.0,-999.0,31,-99.99,,,0.00,weatherlink.com 1.10,2013-03-10 06:59:00,
2013-03-10 03:14:00,30.7,3.0,30.33,NNW,328,0.0,-999.0,31,-99.99,,,0.00,weatherlink.com 1.10,2013-03-10 07:14:00,
2013-03-10 03:29:00,31.9,4.0,30.32,NNW,332,0.0,-999.0,30,-99.99,,,0.00,weatherlink.com 1.10,2013-03-10 07:29:00,
2013-03-10 03:44:00,32.0,4.0,30.32,NNW,332,0.0,-999.0,30,-99.99,,,0.00,weatherlink.com 1.10,2013-03-10 07:44:00,
2013-03-10 03:59:00,32.0,4.0,30.32,NNW,332,0.0,-999.0,30,-99.99,,,0.00,weatherlink.com 1.10,2013-03-10 07:59:00,
2013-03-10 04:14:00,32.4,4.0,30.33,NNW,332,0.0,-999.0,30,-99.99,,,0.00,weatherlink.com 1.10,2013-03-10 08:14:00,
2013-03-10 04:29:00,32.8,4.0,30.33,NE,39,0.0,-999.0,30,-99.99,,,0.00,weatherlink.com 1.10,2013-03-10 08:29:00,
2013-03-10 04:59:00,33.7,5.0,30.33,NE,37,0.0,-999.0,30,-99.99,,,0.00,weatherlink.com 1.10,2013-03-10 08:59:00,
2013-03-10 05:14:00,34.2,6.0,30.34,NE,39,1.0,-999.0,30,-99.99,,,0.00,weatherlink.com 1.10,2013-03-10 09:14:00,
2013-03-10 05:29:00,35.0,6.0,30.34,NNE,13,3.0,-999.0,30,-99.99,,,0.00,weatherlink.com 1.10,2013-03-10 09:29:00,
2013-03-10 05:44:00,35.4,7.0,30.34,NNE,29,2.0,-999.0,31,-99.99,,,0.00,weatherlink.com 1.10,2013-03-10 09:44:00,
2013-03-10 05:59:00,35.6,10.0,30.34,North,7,1.0,-999.0,34,-99.99,,,0.00,weatherlink.com 1.10,2013-03-10 09:59:00,
2013-03-10 06:14:00,35.5,13.0,30.35,NE,41,0.0,-999.0,39,-99.99,,,0.00,weatherlink.com 1.10,2013-03-10 10:14:00,
2013-03-10 06:29:00,35.6,15.0,30.34,NE,44,0.0,-999.0,43,-99.99,,,0.00,weatherlink.com 1.10,2013-03-10 10:29:00,
2013-03-10 06:44:00,35.6,17.0,30.34,NE,48,5.0,-999.0,46,-99.99,,,0.00,weatherlink.com 1.10,2013-03-10 10:44:00,
2013-03-10 06:59:00,35.9,19.0,30.35,North,8,0.0,-999.0,50,-99.99,,,0.00,weatherlink.com 1.10,2013-03-10 10:59:00,
2013-03-10 07:14:00,36.0,20.0,30.35,NNE,20,0.0,-999.0,53,-99.99,,,0.01,weatherlink.com 1.10,2013-03-10 11:14:00,
2013-03-10 07:29:00,36.1,21.0,30.35,NNE,20,0.0,-999.0,55,-99.99,,,0.01,weatherlink.com 1.10,2013-03-10 11:29:00,
2013-03-10 07:44:00,36.4,22.0,30.35,NE,35,4.0,-999.0,57,-99.99,,,0.01,weatherlink.com 1.10,2013-03-10 11:44:00,
2013-03-10 07:59:00,36.7,23.0,30.36,NE,56,0.0,-999.0,58,-99.99,,,0.01,weatherlink.com 1.10,2013-03-10 11:59:00,
2013-03-10 08:14:00,36.8,24.0,30.36,NE,46,2.0,-999.0,60,-99.99,,,0.01,weatherlink.com 1.10,2013-03-10 12:14:00,
2013-03-10 08:29:00,36.9,24.0,30.37,NNE,30,0.0,-999.0,61,-99.99,,,0.01,weatherlink.com 1.10,2013-03-10 12:29:00,
2013-03-10 08:44:00,37.1,25.0,30.37,ENE,68,0.0,-999.0,62,-99.99,,,0.01,weatherlink.com 1.10,2013-03-10 12:44:00,
2013-03-10 08:59:00,37.3,25.0,30.37,North,356,0.0,-999.0,61,-99.99,,,0.01,weatherlink.com 1.10,2013-03-10 12:59:00,
2013-03-10 09:14:00,37.7,26.0,30.37,NNE,32,3.0,-999.0,62,-99.99,,,0.01,weatherlink.com 1.10,2013-03-10 13:14:00,
2013-03-10 09:29:00,38.1,26.0,30.38,NNE,31,0.0,-999.0,62,-99.99,,,0.01,weatherlink.com 1.10,2013-03-10 13:29:00,
2013-03-10 09:44:00,38.4,27.0,30.38,NE,50,0.0,-999.0,63,-99.99,,,0.01,weatherlink.com 1.10,2013-03-10 13:44:00,
2013-03-10 09:59:00,39.0,27.0,30.38,NE,42,1.0,-999.0,63,-99.99,,,0.01,weatherlink.com 1.10,2013-03-10 13:59:00,
2013-03-10 10:14:00,39.4,28.0,30.38,ENE,64,0.0,-999.0,64,-99.99,,,0.01,weatherlink.com 1.10,2013-03-10 14:14:00,
2013-03-10 10:29:00,39.6,29.0,30.38,NNE,25,2.0,-999.0,65,-99.99,,,0.01,weatherlink.com 1.10,2013-03-10 14:29:00,
2013-03-10 10:44:00,39.9,29.0,30.38,NNE,27,0.0,-999.0,66,-99.99,,,0.01,weatherlink.com 1.10,2013-03-10 14:44:00,
2013-03-10 10:59:00,40.6,30.0,30.38,NNE,25,2.0,-999.0,66,-99.99,,,0.01,weatherlink.com 1.10,2013-03-10 14:59:00,
2013-03-10 11:14:00,40.9,31.0,30.38,North,10,1.0,-999.0,67,-99.99,,,0.01,weatherlink.com 1.10,2013-03-10 15:14:00,
2013-03-10 11:29:00,41.1,31.0,30.38,NNE,33,1.0,-999.0,68,-99.99,,,0.01,weatherlink.com 1.10,2013-03-10 15:29:00,
2013-03-10 11:44:00,41.5,32.0,30.38,North,10,2.0,-999.0,68,-99.99,,,0.01,weatherlink.com 1.10,2013-03-10 15:44:00,
2013-03-10 11:59:00,41.8,32.0,30.38,NNE,24,0.0,-999.0,68,-99.99,,,0.01,weatherlink.com 1.10,2013-03-10 15:59:00,
2013-03-10 12:14:00,42.6,33.0,30.37,North,352,2.0,-999.0,68,-99.99,,,0.01,weatherlink.com 1.10,2013-03-10 16:14:00,
2013-03-10 12:29:00,42.1,33.0,30.37,NE,54,0.0,-999.0,69,-99.99,,,0.01,weatherlink.com 1.10,2013-03-10 16:29:00,
2013-03-10 12:44:00,42.3,32.0,30.37,NNE,20,0.0,-999.0,68,-99.99,,,0.01,weatherlink.com 1.10,2013-03-10 16:44:00,
2013-03-10 12:59:00,42.6,33.0,30.37,NE,56,1.0,-999.0,69,-99.99,,,0.01,weatherlink.com 1.10,2013-03-10 16:59:00,
2013-03-10 13:14:00,43.0,33.0,30.36,ENE,59,2.0,-999.0,69,-99.99,,,0.01,weatherlink.com 1.10,2013-03-10 17:14:00,
2013-03-10 13:29:00,43.8,34.0,30.35,NE,54,4.0,-999.0,69,-99.99,,,0.01,weatherlink.com 1.10,2013-03-10 17:29:00,
2013-03-10 13:44:00,43.7,34.0,30.35,ENE,60,2.0,-999.0,69,-99.99,,,0.01,weatherlink.com 1.10,2013-03-10 17:44:00,
2013-03-10 13:59:00,43.5,34.0,30.35,NE,53,3.0,-999.0,70,-99.99,,,0.01,weatherlink.com 1.10,2013-03-10 17:59:00,
2013-03-10 14:14:00,45.0,35.0,30.34,East,83,3.0,-999.0,69,-99.99,,,0.01,weatherlink.com 1.10,2013-03-10 18:14:00,
2013-03-10 14:29:00,44.6,35.0,30.34,ENE,70,2.0,-999.0,69,-99.99,,,0.01,weatherlink.com 1.10,2013-03-10 18:29:00,
2013-03-10 14:44:00,44.2,35.0,30.34,ENE,73,2.0,-999.0,70,-99.99,,,0.01,weatherlink.com 1.10,2013-03-10 18:44:00,
2013-03-10 14:59:00,44.6,35.0,30.34,ENE,59,3.0,-999.0,69,-99.99,,,0.01,weatherlink.com 1.10,2013-03-10 18:59:00,
2013-03-10 15:14:00,44.6,35.0,30.34,ENE,57,2.0,-999.0,69,-99.99,,,0.01,weatherlink.com 1.10,2013-03-10 19:14:00,
2013-03-10 15:29:00,44.9,35.0,30.34,ENE,64,4.0,-999.0,68,-99.99,,,0.01,weatherlink.com 1.10,2013-03-10 19:29:00,
2013-03-10 15:44:00,45.8,36.0,30.33,ENE,74,3.0,-999.0,68,-99.99,,,0.01,weatherlink.com 1.10,2013-03-10 19:44:00,
2013-03-10 15:59:00,45.5,35.0,30.34,NE,40,2.0,-999.0,68,-99.99,,,0.01,weatherlink.com 1.10,2013-03-10 19:59:00,
2013-03-10 16:14:00,46.7,36.0,30.34,ENE,74,2.0,-999.0,67,-99.99,,,0.01,weatherlink.com 1.10,2013-03-10 20:14:00,
2013-03-10 16:29:00,45.0,35.0,30.33,ENE,68,1.0,-999.0,68,-99.99,,,0.01,weatherlink.com 1.10,2013-03-10 20:29:00,
2013-03-10 16:44:00,46.3,36.0,30.33,ENE,71,0.0,-999.0,68,-99.99,,,0.01,weatherlink.com 1.10,2013-03-10 20:44:00,
2013-03-10 16:59:00,47.0,36.0,30.33,NE,50,0.0,-999.0,67,-99.99,,,0.01,weatherlink.com 1.10,2013-03-10 20:59:00,
2013-03-10 17:14:00,47.1,37.0,30.33,ENE,72,2.0,-999.0,67,-99.99,,,0.01,weatherlink.com 1.10,2013-03-10 21:14:00,
2013-03-10 17:29:00,45.0,35.0,30.33,ENE,72,0.0,-999.0,67,-99.99,,,0.01,weatherlink.com 1.10,2013-03-10 21:29:00,
2013-03-10 17:44:00,45.0,35.0,30.33,ENE,72,0.0,-999.0,68,-99.99,,,0.01,weatherlink.com 1.10,2013-03-10 21:44:00,
2013-03-10 17:59:00,43.3,34.0,30.33,ENE,72,3.0,-999.0,69,-99.99,,,0.01,weatherlink.com 1.10,2013-03-10 21:59:00,
2013-03-10 18:14:00,41.9,33.0,30.34,SE,126,0.0,-999.0,70,-99.99,,,0.01,weatherlink.com 1.10,2013-03-10 22:14:00,
2013-03-10 18:29:00,40.2,31.0,30.33,SE,125,0.0,-999.0,69,-99.99,,,0.01,weatherlink.com 1.10,2013-03-10 22:29:00,
2013-03-10 18:44:00,39.1,29.0,30.33,SE,124,0.0,-999.0,67,-99.99,,,0.01,weatherlink.com 1.10,2013-03-10 22:44:00,
2013-03-10 18:59:00,38.4,27.0,30.34,ESE,117,0.0,-999.0,64,-99.99,,,0.01,weatherlink.com 1.10,2013-03-10 22:59:00,
2013-03-10 19:14:00,37.9,25.0,30.34,ESE,117,0.0,-999.0,61,-99.99,,,0.01,weatherlink.com 1.10,2013-03-10 23:14:00,
2013-03-10 19:29:00,37.6,24.0,30.35,ESE,117,0.0,-999.0,58,-99.99,,,0.01,weatherlink.com 1.10,2013-03-10 23:29:00,
2013-03-10 19:44:00,37.2,23.0,30.35,ESE,117,3.0,-999.0,57,-99.99,,,0.01,weatherlink.com 1.10,2013-03-10 23:44:00,
2013-03-10 19:59:00,36.8,23.0,30.35,ESE,117,0.0,-999.0,58,-99.99,,,0.01,weatherlink.com 1.10,2013-03-10 23:59:00,
2013-03-10 20:14:00,36.4,23.0,30.35,ESE,117,0.0,-999.0,58,-99.99,,,0.01,weatherlink.com 1.10,2013-03-11 00:14:00,
2013-03-10 20:29:00,36.3,22.0,30.35,ESE,117,0.0,-999.0,57,-99.99,,,0.01,weatherlink.com 1.10,2013-03-11 00:29:00,
2013-03-10 20:44:00,36.2,21.0,30.35,ESE,117,0.0,-999.0,54,-99.99,,,0.01,weatherlink.com 1.10,2013-03-11 00:44:00,
2013-03-10 20:59:00,36.2,20.0,30.35,SSE,154,0.0,-999.0,52,-99.99,,,0.01,weatherlink.com 1.10,2013-03-11 00:59:00,
2013-03-10 21:14:00,36.3,20.0,30.36,SSE,150,0.0,-999.0,52,-99.99,,,0.01,weatherlink.com 1.10,2013-03-11 01:14:00,
2013-03-10 21:29:00,36.4,20.0,30.35,SE,144,0.0,-999.0,52,-99.99,,,0.01,weatherlink.com 1.10,2013-03-11 01:29:00,
2013-03-10 21:44:00,36.3,20.0,30.34,ESE,108,0.0,-999.0,52,-99.99,,,0.01,weatherlink.com 1.10,2013-03-11 01:44:00,
2013-03-10 21:59:00,36.1,20.0,30.34,ESE,111,0.0,-999.0,53,-99.99,,,0.01,weatherlink.com 1.10,2013-03-11 01:59:00,
2013-03-10 22:14:00,36.0,20.0,30.34,ESE,111,0.0,-999.0,53,-99.99,,,0.01,weatherlink.com 1.10,2013-03-11 02:14:00,
2013-03-10 22:29:00,35.8,20.0,30.34,South,177,0.0,-999.0,52,-99.99,,,0.01,weatherlink.com 1.10,2013-03-11 02:29:00,
2013-03-10 22:44:00,35.8,19.0,30.34,South,172,0.0,-999.0,50,-99.99,,,0.01,weatherlink.com 1.10,2013-03-11 02:44:00,
2013-03-10 22:59:00,35.6,18.0,30.34,SE,133,0.0,-999.0,50,-99.99,,,0.01,weatherlink.com 1.10,2013-03-11 02:59:00,
2013-03-10 23:14:00,35.5,18.0,30.34,SE,137,0.0,-999.0,50,-99.99,,,0.01,weatherlink.com 1.10,2013-03-11 03:14:00,
2013-03-10 23:29:00,36.1,17.0,30.33,South,186,0.0,-999.0,47,-99.99,,,0.01,weatherlink.com 1.10,2013-03-11 03:29:00,
2013-03-10 23:44:00,36.1,18.0,30.34,South,190,4.0,-999.0,48,-99.99,,,0.01,weatherlink.com 1.10,2013-03-11 03:44:00,
2013-03-10 23:59:00,36.1,19.0,30.33,South,187,2.0,-999.0,50,-99.99,,,0.01,weatherlink.com 1.10,2013-03-11 03:59:00,